White Sulphur Springs, New York
Current Conditions -  °F | °C
As of 2:15 PM on Sunday 21 Dec 2014 (Local Time) from KMSV Reporting Station
Overcast Overcast  
Wind Chill: -1°   Ceiling: 1700
Heat Index: -1°   Visibility: 10mi
Dew Point: -4°   Wind: 3mph
Humidity: 80%   Direction: 280°W
Pressure: 30.24"   Gusts: NA
Location:  41.8°N, 74.83°W
Report Text: KMSV 211915Z AUTO 28003KT 10SM BKN017 OVC025 M01/M04 A3024 RMK AO1
Loading
Personal Weather Stations






























Interactive Weather Map New forecast layout! Learn more

10-Day Weather Forecast

Advertisements
Track Severe Weather on mobile